createdAt,value
2019-05-05T00:02:44.731Z,0.93
2019-05-05T00:05:36.285Z,1.03
2019-05-05T00:08:06.323Z,1.10
2019-05-05T00:11:05.086Z,0.87
2019-05-05T00:13:42.328Z,1.37
2019-05-05T00:16:48.660Z,1.23
2019-05-05T00:19:29.718Z,1.37
2019-05-05T00:21:55.134Z,0.83
2019-05-05T00:24:24.800Z,1.03
2019-05-05T00:26:55.294Z,0.87
2019-05-05T00:29:25.381Z,0.87
2019-05-05T00:31:54.837Z,0.73
2019-05-05T00:34:24.562Z,1.23
2019-05-05T00:36:55.331Z,1.10
2019-05-05T00:39:27.132Z,2.23
2019-05-05T00:42:08.523Z,1.80
2019-05-05T00:44:37.802Z,1.77
2019-05-05T00:47:41.781Z,1.87
2019-05-05T00:50:17.023Z,1.50
2019-05-05T00:52:48.074Z,2.00
2019-05-05T00:55:17.443Z,1.67
2019-05-05T00:57:51.524Z,2.00
2019-05-05T01:00:35.312Z,2.40
2019-05-05T01:03:04.835Z,2.07
2019-05-05T01:05:49.688Z,2.50
2019-05-05T01:08:24.830Z,2.40
2019-05-05T01:10:54.798Z,3.13
2019-05-05T01:13:24.631Z,2.83
2019-05-05T01:15:54.277Z,3.23
2019-05-05T01:18:24.900Z,3.13
2019-05-05T01:20:55.191Z,3.20
2019-05-05T01:23:24.681Z,3.30
2019-05-05T01:25:59.183Z,3.23
2019-05-05T01:28:30.988Z,2.93
2019-05-05T01:31:05.716Z,3.83
2019-05-05T01:33:54.197Z,2.73
2019-05-05T01:36:25.756Z,3.33
2019-05-05T01:39:04.222Z,2.77
2019-05-05T01:41:41.600Z,2.73
2019-05-05T01:44:10.778Z,2.50
2019-05-05T01:46:39.995Z,2.30
2019-05-05T01:49:09.179Z,3.20
2019-05-05T01:51:41.389Z,3.20
2019-05-05T01:54:14.348Z,2.67
2019-05-05T01:56:44.512Z,3.20
2019-05-05T01:59:14.454Z,3.27
2019-05-05T02:01:44.517Z,2.30
2019-05-05T02:04:14.538Z,3.90
2019-05-05T02:06:44.310Z,4.20
2019-05-05T02:09:15.979Z,3.47
2019-05-05T02:11:45.417Z,3.20
2019-05-05T02:14:15.997Z,3.77
2019-05-05T02:16:51.144Z,3.60
2019-05-05T02:19:21.113Z,3.57
2019-05-05T02:21:54.601Z,3.80
2019-05-05T02:24:25.973Z,3.67
2019-05-05T02:26:55.527Z,4.07
2019-05-05T02:29:46.553Z,4.37
2019-05-05T02:32:40.567Z,4.17
2019-05-05T02:35:16.525Z,4.27
2019-05-05T02:37:46.353Z,4.30
2019-05-05T02:40:16.283Z,3.87
2019-05-05T02:42:47.914Z,5.20
2019-05-05T02:45:35.255Z,3.80
2019-05-05T02:48:14.909Z,4.27
2019-05-05T02:51:02.675Z,4.87
2019-05-05T02:53:51.334Z,4.17
2019-05-05T02:56:26.645Z,3.77
2019-05-05T02:59:04.305Z,4.50
2019-05-05T03:01:48.633Z,4.67
2019-05-05T03:04:18.494Z,3.50
2019-05-05T03:06:51.483Z,4.00
2019-05-05T03:09:24.270Z,4.23
2019-05-05T03:11:56.397Z,4.00
2019-05-05T03:14:27.198Z,4.13
2019-05-05T03:16:57.840Z,2.97
2019-05-05T03:19:27.872Z,3.50
2019-05-05T03:21:58.340Z,3.13
2019-05-05T03:24:28.948Z,2.80
2019-05-05T03:27:03.683Z,2.87
2019-05-05T03:29:33.590Z,2.70
2019-05-05T03:32:05.596Z,2.97
2019-05-05T03:34:34.972Z,3.03
2019-05-05T03:37:07.247Z,3.13
2019-05-05T03:39:38.052Z,2.93
2019-05-05T03:42:29.462Z,3.17
2019-05-05T03:45:07.492Z,3.03
2019-05-05T03:47:37.679Z,2.93
2019-05-05T03:50:11.465Z,3.40
2019-05-05T03:52:44.676Z,4.23
2019-05-05T03:55:19.876Z,2.87
2019-05-05T03:57:53.815Z,2.00
2019-05-05T04:01:14.514Z,2.90
2019-05-05T04:03:47.029Z,3.00
2019-05-05T04:06:38.060Z,2.30
2019-05-05T04:09:09.450Z,2.50
2019-05-05T04:11:38.739Z,2.90
2019-05-05T04:14:14.222Z,3.10
2019-05-05T04:16:55.384Z,3.07
2019-05-05T04:19:25.235Z,3.07
2019-05-05T04:21:55.844Z,3.10
2019-05-05T04:24:26.439Z,3.40
2019-05-05T04:26:57.144Z,2.90
2019-05-05T04:29:26.285Z,3.13
2019-05-05T04:31:59.825Z,3.53
2019-05-05T04:34:28.956Z,4.20
2019-05-05T04:36:59.378Z,3.43
2019-05-05T04:39:29.075Z,4.07
2019-05-05T04:42:00.491Z,4.53
2019-05-05T04:44:31.512Z,3.70
2019-05-05T04:47:06.672Z,4.00
2019-05-05T04:50:04.333Z,3.17
2019-05-05T04:52:34.342Z,2.90
2019-05-05T04:55:03.962Z,2.73
2019-05-05T04:57:35.323Z,2.30
2019-05-05T05:00:04.980Z,2.87
2019-05-05T05:02:53.849Z,2.43
2019-05-05T05:05:27.194Z,2.70
2019-05-05T05:07:58.113Z,2.67
2019-05-05T05:10:27.384Z,2.87
2019-05-05T05:12:56.570Z,2.57
2019-05-05T05:15:25.680Z,2.67
2019-05-05T05:18:04.460Z,2.70
2019-05-05T05:20:34.058Z,1.77
2019-05-05T05:23:03.754Z,2.03
2019-05-05T05:25:34.684Z,2.87
2019-05-05T05:28:04.342Z,2.90
2019-05-05T05:30:34.656Z,2.90
2019-05-05T05:33:04.474Z,2.97
2019-05-05T05:35:33.767Z,2.23
2019-05-05T05:38:04.712Z,2.60
2019-05-05T05:40:40.613Z,2.90
2019-05-05T05:43:13.982Z,2.90
2019-05-05T05:45:59.005Z,2.80
2019-05-05T05:48:53.847Z,3.70
2019-05-05T05:51:23.798Z,3.77
2019-05-05T05:53:54.379Z,3.23
2019-05-05T05:56:24.939Z,3.77
2019-05-05T05:58:54.313Z,3.20
2019-05-05T06:01:23.973Z,3.53
2019-05-05T06:03:53.655Z,3.80
2019-05-05T06:06:24.129Z,3.27
2019-05-05T06:08:54.354Z,3.63
2019-05-05T06:11:23.886Z,3.60
2019-05-05T06:13:54.480Z,3.67
2019-05-05T06:16:23.798Z,3.60
2019-05-05T06:18:54.278Z,3.40
2019-05-05T06:21:24.159Z,3.07
2019-05-05T06:23:53.845Z,3.03
2019-05-05T06:26:24.110Z,3.83
2019-05-05T06:28:54.107Z,3.47
2019-05-05T06:31:24.529Z,2.93
2019-05-05T06:33:54.328Z,2.70
2019-05-05T06:36:23.694Z,4.03
2019-05-05T06:38:54.133Z,3.80
2019-05-05T06:41:29.606Z,3.27
2019-05-05T06:44:17.940Z,3.20
2019-05-05T06:47:21.170Z,3.10
2019-05-05T06:49:50.275Z,4.17
2019-05-05T06:52:19.391Z,4.00
2019-05-05T06:54:48.616Z,3.20
2019-05-05T06:57:17.713Z,3.60
2019-05-05T06:59:49.460Z,3.43
2019-05-05T07:02:18.634Z,3.33
2019-05-05T07:04:48.161Z,3.33
2019-05-05T07:07:18.032Z,3.10
2019-05-05T07:09:47.159Z,3.93
2019-05-05T07:12:16.286Z,3.63
2019-05-05T07:14:45.424Z,3.77
2019-05-05T07:17:14.558Z,3.90
2019-05-05T07:19:44.896Z,3.83
2019-05-05T07:22:17.520Z,3.80
2019-05-05T07:24:45.325Z,3.43
2019-05-05T07:27:14.473Z,4.47
2019-05-05T07:29:43.850Z,3.47
2019-05-05T07:32:14.173Z,3.67
2019-05-05T07:35:01.331Z,3.77
2019-05-05T07:37:30.535Z,4.00
2019-05-05T07:40:00.045Z,3.97
2019-05-05T07:42:29.268Z,3.80
2019-05-05T07:44:58.393Z,3.77
2019-05-05T07:47:27.540Z,3.90
2019-05-05T07:49:56.656Z,3.43
2019-05-05T07:52:25.792Z,3.93
2019-05-05T07:54:55.200Z,3.73
2019-05-05T07:57:24.580Z,4.10
2019-05-05T07:59:55.087Z,4.47
2019-05-05T08:02:24.205Z,4.03
2019-05-05T08:04:54.421Z,3.80
2019-05-05T08:07:24.085Z,3.00
2019-05-05T08:09:53.822Z,3.33
2019-05-05T08:12:24.938Z,3.50
2019-05-05T08:14:54.093Z,3.60
2019-05-05T08:17:48.130Z,3.73
2019-05-05T08:20:23.687Z,3.30
2019-05-05T08:22:53.680Z,3.73
2019-05-05T08:25:39.348Z,3.33
2019-05-05T08:28:14.658Z,3.43
2019-05-05T08:31:05.679Z,3.10
2019-05-05T08:33:34.885Z,2.97
2019-05-05T08:36:04.687Z,3.23
2019-05-05T08:38:34.775Z,2.67
2019-05-05T08:41:04.638Z,3.17
2019-05-05T08:43:34.793Z,2.83
2019-05-05T08:46:04.869Z,3.60
2019-05-05T08:48:35.348Z,3.10
2019-05-05T08:51:04.978Z,3.13
2019-05-05T08:53:42.557Z,3.57
2019-05-05T08:56:05.166Z,4.10
2019-05-05T08:58:34.542Z,2.97
2019-05-05T09:01:04.405Z,3.50
2019-05-05T09:03:33.850Z,3.50
2019-05-05T09:06:04.704Z,3.20
2019-05-05T09:08:34.743Z,4.10
2019-05-05T09:11:04.726Z,3.47
2019-05-05T09:13:34.247Z,3.67
2019-05-05T09:16:03.915Z,3.23
2019-05-05T09:18:33.925Z,3.80
2019-05-05T09:21:04.423Z,4.13
2019-05-05T09:23:35.395Z,4.13
2019-05-05T09:26:23.981Z,3.30
2019-05-05T09:29:27.441Z,3.03
2019-05-05T09:31:56.575Z,3.03
2019-05-05T09:34:25.768Z,3.73
2019-05-05T09:36:54.927Z,2.90
2019-05-05T09:39:24.176Z,3.10
2019-05-05T09:41:53.689Z,3.73
2019-05-05T09:44:24.155Z,3.20
2019-05-05T09:46:53.946Z,3.23
2019-05-05T09:49:24.698Z,3.17
2019-05-05T09:51:54.560Z,3.50
2019-05-05T09:54:25.427Z,3.27
2019-05-05T09:56:54.647Z,3.00
2019-05-05T09:59:24.142Z,3.53
2019-05-05T10:01:53.974Z,3.20
2019-05-05T10:04:25.739Z,3.27
2019-05-05T10:06:54.866Z,3.17
2019-05-05T10:09:24.232Z,3.30
2019-05-05T10:11:55.847Z,2.80
2019-05-05T10:14:25.391Z,2.63
2019-05-05T10:16:54.708Z,2.70
2019-05-05T10:19:24.438Z,2.13
2019-05-05T10:21:53.690Z,2.13
2019-05-05T10:24:30.846Z,2.30
2019-05-05T10:26:58.888Z,2.30
2019-05-05T10:29:28.147Z,2.57
2019-05-05T10:31:57.349Z,3.00
2019-05-05T10:34:26.548Z,1.77
2019-05-05T10:36:55.663Z,2.60
2019-05-05T10:39:33.476Z,2.60
2019-05-05T10:42:04.068Z,1.80
2019-05-05T10:44:34.082Z,2.53
2019-05-05T10:47:04.586Z,1.93
2019-05-05T10:49:33.918Z,1.93
2019-05-05T10:52:03.707Z,1.87
2019-05-05T10:54:43.816Z,2.10
2019-05-05T10:57:04.259Z,2.50
2019-05-05T10:59:34.449Z,1.97
2019-05-05T11:02:04.859Z,2.50
2019-05-05T11:04:34.544Z,3.23
2019-05-05T11:07:04.343Z,2.63
2019-05-05T11:09:36.538Z,1.97
2019-05-05T11:12:08.488Z,1.87
2019-05-05T11:14:39.822Z,2.83
2019-05-05T11:17:24.642Z,2.23
2019-05-05T11:19:52.678Z,2.60
2019-05-05T11:22:24.265Z,2.60
2019-05-05T11:25:00.808Z,2.07
2019-05-05T11:27:26.425Z,2.80
2019-05-05T11:33:24.747Z,2.47
2019-05-05T11:36:05.737Z,2.60
2019-05-05T11:38:36.979Z,2.40
2019-05-05T11:41:07.808Z,2.47
2019-05-05T11:43:40.414Z,2.67
2019-05-05T11:46:10.348Z,2.77
2019-05-05T11:48:40.556Z,2.87
2019-05-05T11:51:09.781Z,2.43
2019-05-05T11:53:39.056Z,2.83
2019-05-05T11:56:11.815Z,2.50
2019-05-05T11:58:44.255Z,2.37
2019-05-05T12:01:15.392Z,2.90
2019-05-05T12:03:48.072Z,2.40
2019-05-05T12:06:38.062Z,2.53
2019-05-05T12:09:14.129Z,2.90
2019-05-05T12:11:46.047Z,3.07
2019-05-05T12:14:26.473Z,2.50
2019-05-05T12:16:54.604Z,3.30
2019-05-05T12:19:28.529Z,2.93
2019-05-05T12:22:05.979Z,2.57
2019-05-05T12:24:47.251Z,2.60
2019-05-05T12:27:26.010Z,3.23
2019-05-05T12:30:03.241Z,2.93
2019-05-05T12:32:34.858Z,2.63
2019-05-05T12:35:05.719Z,2.30
2019-05-05T12:37:35.410Z,3.00
2019-05-05T12:40:06.607Z,2.80
2019-05-05T12:42:37.189Z,2.47
2019-05-05T12:45:09.619Z,3.33
2019-05-05T12:48:10.213Z,2.87
2019-05-05T12:50:44.295Z,2.60
2019-05-05T12:53:15.791Z,2.63
2019-05-05T12:55:47.314Z,3.20
2019-05-05T12:58:17.548Z,3.07
2019-05-05T13:00:57.451Z,3.10
2019-05-05T13:03:27.084Z,2.53
2019-05-05T13:05:56.635Z,3.13
2019-05-05T13:08:29.814Z,3.33
2019-05-05T13:10:58.994Z,2.97
2019-05-05T13:13:28.279Z,3.10
2019-05-05T13:15:57.737Z,2.70
2019-05-05T13:18:26.964Z,2.90
2019-05-05T13:21:05.793Z,3.30
2019-05-05T13:23:53.852Z,3.53
2019-05-05T13:26:41.156Z,2.80
2019-05-05T13:29:10.508Z,2.90
2019-05-05T13:31:39.618Z,3.47
2019-05-05T13:34:08.802Z,3.40
2019-05-05T13:36:38.012Z,2.77
2019-05-05T13:39:08.481Z,2.63
2019-05-05T13:41:37.691Z,2.70
2019-05-05T13:44:11.301Z,2.17
2019-05-05T13:46:40.892Z,1.93
2019-05-05T13:49:35.459Z,2.07
2019-05-05T13:52:05.618Z,2.20
2019-05-05T13:54:34.955Z,2.17
2019-05-05T13:57:04.288Z,2.20
2019-05-05T13:59:34.060Z,2.03
2019-05-05T14:02:03.724Z,2.40
2019-05-05T14:04:34.397Z,2.10
2019-05-05T14:07:04.143Z,2.07
2019-05-05T14:09:33.457Z,2.17
2019-05-05T14:12:04.077Z,2.60
2019-05-05T14:14:33.648Z,2.33
2019-05-05T14:17:04.146Z,1.97
2019-05-05T14:19:34.134Z,2.37
2019-05-05T14:22:04.534Z,1.87
2019-05-05T14:24:44.388Z,2.73
2019-05-05T14:27:14.526Z,2.20
2019-05-05T14:30:04.051Z,2.43
2019-05-05T14:32:36.223Z,2.17
2019-05-05T14:35:14.250Z,1.97
2019-05-05T14:37:47.124Z,1.90
2019-05-05T14:40:16.867Z,2.00
2019-05-05T14:42:46.056Z,1.70
2019-05-05T14:45:16.178Z,1.90
2019-05-05T14:47:45.392Z,2.27
2019-05-05T14:50:15.605Z,2.17
2019-05-05T14:52:44.858Z,2.70
2019-05-05T14:55:14.252Z,2.07
2019-05-05T14:57:44.081Z,2.40
2019-05-05T15:00:16.512Z,2.03
2019-05-05T15:02:45.855Z,2.00
2019-05-05T15:05:33.829Z,1.97
2019-05-05T15:08:24.119Z,2.10
2019-05-05T15:11:04.614Z,1.90
2019-05-05T15:13:33.919Z,2.17
2019-05-05T15:16:04.038Z,1.90
2019-05-05T15:18:34.602Z,1.87
2019-05-05T15:21:03.891Z,1.73
2019-05-05T15:23:34.507Z,1.40
2019-05-05T15:26:04.513Z,1.20
2019-05-05T15:28:33.846Z,1.23
2019-05-05T15:31:03.037Z,1.20
2019-05-05T15:33:33.611Z,1.33
2019-05-05T15:36:04.422Z,4.30
2019-05-05T15:38:34.873Z,2.10
2019-05-05T15:41:04.417Z,2.00
2019-05-05T15:43:33.631Z,2.07
2019-05-05T15:46:04.495Z,1.90
2019-05-05T15:48:33.865Z,1.53
2019-05-05T15:51:04.288Z,1.80
2019-05-05T15:53:33.642Z,2.23
2019-05-05T15:56:04.502Z,2.00
2019-05-05T15:58:34.212Z,2.00
2019-05-05T16:01:03.922Z,2.47
2019-05-05T16:03:33.396Z,2.33
2019-05-05T16:06:03.832Z,1.80
2019-05-05T16:08:34.020Z,2.10
2019-05-05T16:11:03.898Z,2.37
2019-05-05T16:13:35.283Z,2.37
2019-05-05T16:16:20.741Z,2.43
2019-05-05T16:19:08.290Z,2.30
2019-05-05T16:21:40.870Z,2.30
2019-05-05T16:24:24.818Z,2.00
2019-05-05T16:26:55.548Z,2.27
2019-05-05T16:29:24.803Z,2.00
2019-05-05T16:31:54.191Z,2.27
2019-05-05T16:34:23.593Z,1.40
2019-05-05T16:36:54.565Z,1.80
2019-05-05T16:39:25.681Z,1.70
2019-05-05T16:41:54.906Z,1.80
2019-05-05T16:44:24.071Z,2.03
2019-05-05T16:46:53.964Z,2.00
2019-05-05T16:49:23.531Z,2.10
2019-05-05T16:52:04.121Z,2.20
2019-05-05T16:54:38.898Z,2.40
2019-05-05T16:57:08.096Z,2.50
2019-05-05T16:59:37.242Z,2.40
2019-05-05T17:02:06.718Z,2.50
2019-05-05T17:04:36.027Z,2.60
2019-05-05T17:07:05.234Z,2.73
2019-05-05T17:09:34.621Z,2.63
2019-05-05T17:12:09.835Z,3.03
2019-05-05T17:15:15.378Z,2.10
2019-05-05T17:17:50.892Z,1.90
2019-05-05T17:20:24.522Z,2.00
2019-05-05T17:23:04.101Z,2.63
2019-05-05T17:25:34.261Z,2.47
2019-05-05T17:28:04.552Z,2.07
2019-05-05T17:30:34.221Z,1.80
2019-05-05T17:33:04.653Z,2.47
2019-05-05T17:35:34.492Z,2.50
2019-05-05T17:38:13.954Z,2.30
2019-05-05T17:41:03.675Z,1.70
2019-05-05T17:43:46.739Z,2.22
2019-05-05T17:46:29.063Z,2.00
2019-05-05T17:49:17.915Z,2.10
2019-05-05T17:51:54.441Z,2.03
2019-05-05T17:54:49.407Z,2.00
2019-05-05T17:57:19.729Z,2.00
2019-05-05T17:59:53.571Z,1.70
2019-05-05T18:02:23.654Z,1.70
2019-05-05T18:04:54.043Z,2.13
2019-05-05T18:07:34.577Z,2.10
2019-05-05T18:10:36.595Z,1.83
2019-05-05T18:13:25.211Z,1.80
2019-05-05T18:16:06.111Z,2.20
2019-05-05T18:18:44.239Z,2.53
2019-05-05T18:21:15.891Z,2.30
2019-05-05T18:23:45.155Z,1.77
2019-05-05T18:26:18.912Z,1.97
2019-05-05T18:28:54.120Z,1.97
2019-05-05T18:31:24.241Z,1.70
2019-05-05T18:33:55.574Z,2.83
2019-05-05T18:36:24.836Z,2.40
2019-05-05T18:38:57.110Z,2.37
2019-05-05T18:41:35.814Z,2.30
2019-05-05T18:44:21.782Z,2.20
2019-05-05T18:47:11.932Z,3.03
2019-05-05T18:49:47.381Z,2.67
2019-05-05T18:52:19.163Z,3.37
2019-05-05T18:54:50.626Z,2.83
2019-05-05T18:57:19.920Z,2.67
2019-05-05T18:59:50.805Z,3.17
2019-05-05T19:02:53.448Z,3.10
2019-05-05T19:05:48.496Z,2.93
2019-05-05T19:08:24.501Z,2.77
2019-05-05T19:10:54.272Z,3.00
2019-05-05T19:13:29.537Z,3.08
2019-05-05T19:16:03.570Z,3.00
2019-05-05T19:18:34.048Z,3.30
2019-05-05T19:21:16.178Z,2.90
2019-05-05T19:23:48.454Z,2.80
2019-05-05T19:26:17.978Z,2.93
2019-05-05T19:28:51.717Z,2.83
2019-05-05T19:31:21.533Z,3.50
2019-05-05T19:33:51.612Z,2.80
2019-05-05T19:36:21.682Z,3.10
2019-05-05T19:38:51.261Z,2.90
2019-05-05T19:41:21.257Z,3.00
2019-05-05T19:43:55.489Z,2.67
2019-05-05T19:46:34.658Z,2.93
2019-05-05T19:49:24.083Z,3.33
2019-05-05T19:52:00.840Z,3.13
2019-05-05T19:54:31.419Z,2.67
2019-05-05T19:57:03.933Z,3.20
2019-05-05T19:59:38.960Z,3.07
2019-05-05T20:02:10.164Z,3.30
2019-05-05T20:04:44.639Z,2.70
2019-05-05T20:07:16.049Z,3.03
2019-05-05T20:09:46.656Z,3.30
2019-05-05T20:12:16.119Z,3.27
2019-05-05T20:14:45.447Z,2.80
2019-05-05T20:17:24.672Z,2.80
2019-05-05T20:20:00.044Z,3.30
2019-05-05T20:22:34.616Z,3.10
2019-05-05T20:25:06.396Z,3.03
2019-05-05T20:27:36.742Z,3.43
2019-05-05T20:30:07.053Z,3.37
2019-05-05T20:32:45.642Z,2.80
2019-05-05T20:35:28.882Z,2.93
2019-05-05T20:38:11.761Z,2.40
2019-05-05T20:40:44.449Z,3.10
2019-05-05T20:43:14.436Z,2.80
2019-05-05T20:45:44.304Z,2.70
2019-05-05T20:48:14.845Z,2.87
2019-05-05T20:50:44.096Z,2.70
2019-05-05T20:53:13.714Z,3.17
2019-05-05T20:55:44.851Z,2.63
2019-05-05T20:58:20.099Z,2.53
2019-05-05T21:00:52.278Z,2.57
2019-05-05T21:03:34.469Z,2.50
2019-05-05T21:06:04.616Z,2.70
2019-05-05T21:08:40.074Z,3.20
2019-05-05T21:11:09.435Z,2.83
2019-05-05T21:13:41.139Z,3.10
2019-05-05T21:16:10.537Z,3.87
2019-05-05T21:18:40.397Z,2.93
2019-05-05T21:21:18.655Z,3.10
2019-05-05T21:24:00.545Z,2.83
2019-05-05T21:26:48.634Z,2.77
2019-05-05T21:29:18.106Z,3.40
2019-05-05T21:31:51.621Z,3.10
2019-05-05T21:34:24.826Z,3.03
2019-05-05T21:36:57.413Z,3.10
2019-05-05T21:39:26.889Z,2.97
2019-05-05T21:41:58.112Z,3.07
2019-05-05T21:44:34.359Z,3.43
2019-05-05T21:47:06.009Z,2.90
2019-05-05T21:49:38.125Z,3.00
2019-05-05T21:52:25.564Z,3.00
2019-05-05T21:55:08.596Z,3.70
2019-05-05T21:57:59.401Z,2.93
2019-05-05T22:00:46.582Z,3.47
2019-05-05T22:03:23.566Z,2.70
2019-05-05T22:05:56.298Z,2.77
2019-05-05T22:08:27.487Z,2.97
2019-05-05T22:10:56.667Z,3.00
2019-05-05T22:13:26.789Z,3.17
2019-05-05T22:15:56.089Z,3.27
2019-05-05T22:18:25.254Z,3.10
2019-05-05T22:21:01.629Z,2.40
2019-05-05T22:23:33.990Z,3.10
2019-05-05T22:26:06.176Z,3.13
2019-05-05T22:28:35.633Z,2.90
2019-05-05T22:31:06.980Z,3.03
2019-05-05T22:33:37.507Z,3.00
2019-05-05T22:36:07.826Z,3.20
2019-05-05T22:38:39.327Z,3.37
2019-05-05T22:41:09.374Z,2.90
2019-05-05T22:43:38.597Z,3.37
2019-05-05T22:46:14.076Z,3.20
2019-05-05T22:48:46.660Z,2.63
2019-05-05T22:51:19.225Z,2.77
2019-05-05T22:53:54.706Z,3.10
2019-05-05T22:56:24.105Z,3.10
2019-05-05T22:58:56.323Z,3.10
2019-05-05T23:01:26.605Z,3.00
2019-05-05T23:04:16.856Z,3.10
2019-05-05T23:06:49.267Z,3.53
2019-05-05T23:09:21.150Z,2.97
2019-05-05T23:11:50.401Z,2.87
2019-05-05T23:14:28.936Z,3.33
2019-05-05T23:17:26.184Z,3.10
2019-05-05T23:20:13.501Z,2.60
2019-05-05T23:22:55.138Z,3.00
2019-05-05T23:25:31.402Z,2.97
2019-05-05T23:28:01.175Z,3.30
2019-05-05T23:30:39.401Z,3.43
2019-05-05T23:33:01.423Z,3.30
2019-05-05T23:35:34.402Z,3.20
2019-05-05T23:38:05.368Z,3.23
2019-05-05T23:40:37.089Z,3.40
2019-05-05T23:43:09.199Z,3.23
2019-05-05T23:45:40.275Z,3.23
2019-05-05T23:48:10.467Z,3.17
2019-05-05T23:50:41.766Z,3.80
2019-05-05T23:53:13.735Z,2.90
2019-05-05T23:55:44.094Z,3.60
2019-05-05T23:58:20.179Z,2.93
